Latest Weather Observations for Williamtown

IDN60901

Issued at 10:21 am EDT Wednesday 22 February 2017 (issued every 10 minutes, with the page automatically refreshed every 10 minutes)

About weather observations | Map of Sydney area stations | Latest observations for Sydney area | Other Formats
Station Details ID: 061078 Name: WILLIAMTOWN RAAF Lat: -32.79 Lon: 151.84 Height: 7.5 m
Data from the previous 72 hours. | See also: Recent months at Williamtown
Date/Time
EDT
Temp
°C
App
Temp
°C
Dew
Point
°C
Rel
Hum
%
Delta-T
°C
Wind Press
QNH
hPa
Press
MSL
hPa
Rain since
9am
mm
Dir  Spd
km/h
Gust
km/h
Spd
kts
Gust
kts
22/10:00am 26.4 24.7 15.8 52 6.5 NNE 19 28 10 15 1021.1 1021.0 0.0
22/09:30am 25.6 24.3 16.7 58 5.5 NE 19 30 10 16 1020.9 1020.8 0.0
22/09:00am 25.0 24.2 17.2 62 4.8 NE 17 22 9 12 1021.0 1020.9 0.0
22/08:30am 23.6 23.5 16.9 66 4.1 NE 13 19 7 10 1021.0 1020.9 0.0
22/08:00am 22.1 22.0 17.0 73 3.1 ENE 13 17 7 9 1020.8 1020.7 0.0
22/07:30am 19.7 20.2 16.5 82 1.9 NE 9 11 5 6 1020.4 1020.3 0.0
22/07:00am 18.9 19.3 16.3 85 1.5 E 9 9 5 5 1020.2 1020.1 0.0
22/06:30am 18.5 18.8 15.9 85 1.5 E 9 11 5 6 1019.9 1019.8 0.0
22/06:00am 19.3 19.7 16.2 82 1.8 ENE 9 13 5 7 1019.6 1019.5 0.0
22/05:30am 19.6 19.2 16.3 81 2.0 ENE 13 17 7 9 1019.3 1019.2 0.0
22/05:00am 19.5 19.9 16.2 81 2.0 ENE 9 13 5 7 1019.4 1019.3 0.0
22/04:30am 19.4 19.7 16.1 81 2.0 ENE 9 13 5 7 1019.1 1019.0 0.0
22/04:00am 19.6 19.5 15.9 79 2.2 ENE 11 15 6 8 1019.0 1018.9 0.0
22/03:30am 19.8 19.7 15.9 78 2.3 ENE 11 13 6 7 1019.0 1018.9 0.0
22/03:00am 20.2 20.0 15.8 76 2.6 ENE 11 15 6 8 1019.2 1019.1 0.0
22/02:30am 20.2 20.0 15.8 76 2.6 E 11 15 6 8 1019.4 1019.3 0.0
22/02:00am 20.5 20.2 15.5 73 3.0 ENE 11 15 6 8 1019.5 1019.4 0.0
22/01:30am 20.5 20.2 15.5 73 3.0 ENE 11 13 6 7 1019.7 1019.6 0.0
22/01:00am 20.5 20.1 15.3 72 3.1 E 11 13 6 7 1020.1 1020.0 0.0
22/12:30am 21.1 20.7 15.2 69 3.5 ENE 11 13 6 7 1020.2 1020.1 0.0
22/12:00am 21.4 20.9 15.0 67 3.8 ENE 11 15 6 8 1020.2 1020.1 0.0
 
Date/Time
EDT
Temp
°C
App
Temp
°C
Dew
Point
°C
Rel
Hum
%
Delta-T
°C
Wind Press
QNH
hPa
Press
MSL
hPa
Rain since
9am
mm
Dir  Spd
km/h
Gust
km/h
Spd
kts
Gust
kts
21/11:30pm 21.9 20.6 14.8 64 4.2 ENE 15 19 8 10 1020.3 1020.2 0.0
21/11:00pm 22.3 21.4 14.9 63 4.4 NE 13 19 7 10 1020.2 1020.1 0.0
21/10:30pm 22.5 21.5 14.6 61 4.7 NE 13 19 7 10 1020.4 1020.3 0.0
21/10:00pm 22.6 21.2 14.4 60 4.8 ENE 15 20 8 11 1020.6 1020.5 0.0
21/09:44pm 22.8 21.7 14.4 59 4.9 NE 13 22 7 12 1020.5 1020.4 0.0
21/09:30pm 22.6 21.2 14.4 60 4.8 NE 15 22 8 12 1020.5 1020.4 0.0
21/09:00pm 22.9 20.9 13.9 57 5.2 ENE 17 26 9 14 1020.5 1020.4 0.0
21/08:30pm 23.1 20.5 13.8 55 5.4 ENE 20 30 11 16 1020.0 1019.9 0.0
21/08:00pm 23.4 19.9 13.3 53 5.8 ENE 24 33 13 18 1019.6 1019.5 0.0
21/07:30pm 23.8 20.3 13.4 52 6.0 ENE 24 41 13 22 1019.2 1019.1 0.0
21/07:00pm 24.2 20.4 14.6 55 5.7 ENE 28 39 15 21 1018.7 1018.6 0.0
21/06:30pm 24.5 20.4 14.9 55 5.7 ENE 30 46 16 25 1018.2 1018.1 0.0
21/06:00pm 25.2 21.0 14.6 51 6.3 ENE 30 43 16 23 1017.7 1017.6 0.0
21/05:30pm 25.7 20.9 13.9 48 7.0 ENE 32 44 17 24 1017.4 1017.3 0.0
21/05:00pm 26.1 20.8 13.2 44 7.5 ENE 33 44 18 24 1017.4 1017.3 0.0
21/04:30pm 26.5 21.9 13.6 45 7.6 ENE 30 37 16 20 1017.3 1017.2 0.0
21/04:00pm 27.5 23.9 14.2 44 7.9 ENE 26 35 14 19 1017.2 1017.1 0.0
21/03:30pm 26.6 21.7 14.4 47 7.3 ESE 33 43 18 23 1017.2 1017.1 0.0
21/03:00pm 26.9 22.1 14.0 45 7.7 ESE 32 41 17 22 1017.4 1017.3 0.0
21/02:30pm 26.7 22.4 14.5 47 7.3 ESE 30 41 16 22 1017.7 1017.6 0.0
21/02:00pm 27.2 22.6 15.2 47 7.3 SE 33 44 18 24 1018.1 1018.0 0.0
21/01:30pm 26.1 22.2 15.5 52 6.4 SE 30 37 16 20 1018.4 1018.3 0.0
21/01:00pm 25.7 22.6 15.7 54 6.1 ESE 26 37 14 20 1018.6 1018.5 0.0
21/12:30pm 25.8 23.4 16.4 56 5.8 ESE 24 33 13 18 1018.9 1018.8 0.0
21/12:00pm 25.2 22.6 15.8 56 5.7 SSE 24 32 13 17 1019.1 1019.0 0.0
21/11:30am 25.8 25.2 16.6 56 5.7 SE 15 22 8 12 1019.3 1019.2 0.0
21/11:00am 25.1 25.3 15.7 56 5.7 E 9 20 5 11 1019.4 1019.3 0.0
21/10:30am 24.1 24.3 14.2 54 5.8 WSW 6 9 3 5 1019.6 1019.5 0.0
21/10:00am 22.7 22.7 13.5 56 5.3 WSW 6 7 3 4 1019.6 1019.5 0.0
21/09:30am 21.4 21.2 13.6 61 4.5 WSW 7 11 4 6 1019.3 1019.2 0.0
21/09:00am 19.9 19.8 14.0 69 3.4 WSW 7 11 4 6 1019.2 1019.1 0.0
21/08:30am 18.5 18.2 14.4 77 2.4 WNW 9 11 5 6 1018.6 1018.5 0.0
21/08:00am 16.8 16.6 14.6 87 1.3 WNW 9 11 5 6 1018.1 1018.0 0.0
21/07:30am 15.1 16.2 13.6 91 0.8 CALM 0 0 0 0 1017.7 1017.6 0.0
21/07:00am 13.9 14.7 12.6 92 0.7 CALM 0 0 0 0 1017.3 1017.2 0.0
21/06:30am 13.7 14.5 12.6 93 0.6 CALM 0 0 0 0 1016.8 1016.7 0.0
21/06:00am 13.8 14.6 12.4 91 0.8 CALM 0 0 0 0 1016.7 1016.6 0.0
21/05:30am 14.0 14.8 12.6 91 0.8 CALM 0 0 0 0 1016.3 1016.2 0.0
21/05:00am 14.0 14.8 12.6 91 0.8 CALM 0 0 0 0 1016.0 1015.9 0.0
21/04:30am 14.6 15.4 12.6 88 1.1 CALM 0 0 0 0 1015.7 1015.6 0.0
21/04:00am 16.2 16.6 13.7 85 1.4 NE 4 9 2 5 1015.7 1015.6 0.0
21/03:30am 15.9 16.2 13.4 85 1.4 ENE 4 7 2 4 1015.9 1015.8 0.0
21/03:00am 16.2 16.2 13.7 85 1.4 ENE 6 7 3 4 1015.7 1015.6 0.0
21/02:30am 15.8 17.0 13.8 88 1.1 CALM 0 0 0 0 1015.7 1015.6 0.0
21/02:00am 15.6 16.4 12.7 83 1.6 CALM 0 4 0 2 1015.9 1015.8 0.0
21/01:30am 16.3 16.3 13.6 84 1.5 ENE 6 7 3 4 1016.0 1015.9 0.0
21/01:00am 16.0 17.0 13.1 83 1.6 CALM 0 4 0 2 1016.2 1016.1 0.0
21/12:30am 17.2 16.7 12.7 75 2.5 E 7 7 4 4 1016.2 1016.1 0.0
21/12:00am 18.0 18.1 12.7 71 3.0 NE 4 9 2 5 1016.1 1016.0 0.0
 
Date/Time
EDT
Temp
°C
App
Temp
°C
Dew
Point
°C
Rel
Hum
%
Delta-T
°C
Wind Press
QNH
hPa
Press
MSL
hPa
Rain since
9am
mm
Dir  Spd
km/h
Gust
km/h
Spd
kts
Gust
kts
20/11:30pm 18.8 18.0 12.8 68 3.4 NE 9 11 5 6 1015.9 1015.8 0.0
20/11:00pm 19.0 18.5 12.7 67 3.5 NE 7 11 4 6 1015.8 1015.7 0.0
20/10:30pm 19.1 18.4 12.1 64 3.9 NE 7 9 4 5 1015.7 1015.6 0.0
20/10:00pm 19.6 18.5 12.1 62 4.2 ENE 9 11 5 6 1015.6 1015.5 0.0
20/09:44pm 19.9 18.5 12.2 61 4.3 ENE 11 11 6 6 1015.4 1015.3 0.0
20/09:30pm 19.8 19.0 11.8 60 4.4 E 7 11 4 6 1015.2 1015.1 0.0
20/09:00pm 20.6 19.8 11.8 57 4.9 NE 7 11 4 6 1014.8 1014.7 0.0
20/08:30pm 20.6 19.0 11.5 56 5.0 ENE 11 13 6 7 1014.1 1014.0 0.0
20/08:00pm 21.4 19.0 11.4 53 5.5 ENE 15 19 8 10 1013.4 1013.3 0.0
20/07:30pm 22.2 19.5 11.6 51 5.9 ENE 17 22 9 12 1012.5 1012.4 0.0
20/07:00pm 23.2 19.9 10.9 46 6.8 ENE 19 26 10 14 1012.0 1011.9 0.0
20/06:30pm 23.7 19.6 10.0 42 7.5 E 22 32 12 17 1011.4 1011.3 0.0
20/06:00pm 24.0 19.1 9.9 41 7.7 ESE 26 33 14 18 1011.1 1011.0 0.0
20/05:30pm 24.5 20.7 11.1 43 7.5 ESE 22 30 12 16 1010.7 1010.6 0.0
20/05:00pm 24.8 20.3 11.4 43 7.6 SE 26 33 14 18 1010.0 1009.9 0.0
20/04:30pm 24.6 18.7 10.5 41 7.8 SE 32 37 17 20 1009.9 1009.8 0.0
20/04:00pm 24.5 18.3 9.3 38 8.3 SE 32 43 17 23 1009.7 1009.6 0.0
20/03:30pm 25.1 21.4 9.4 37 8.6 SSW 19 28 10 15 1009.5 1009.4 0.0
20/03:00pm 28.0 21.6 5.0 23 11.8 W 28 - 15 - 1009.5 1009.4 0.0
20/02:30pm 27.3 20.9 5.0 24 11.4 W 28 - 15 - 1009.9 1009.8 0.0
20/02:00pm 26.9 20.4 4.6 24 11.3 WSW 28 - 15 - 1010.2 1010.1 0.0
20/01:30pm 26.3 20.0 3.5 23 11.3 W 26 - 14 - 1010.5 1010.4 0.0
20/01:00pm 25.4 19.5 4.0 25 10.6 W 24 30 13 16 1010.8 1010.7 0.0
20/12:30pm 25.5 19.6 5.7 28 10.1 W 26 33 14 18 1011.0 1010.9 0.0
20/12:00pm 24.4 19.7 6.2 31 9.4 W 20 22 11 12 1011.4 1011.3 0.0
20/11:30am 23.6 18.9 5.0 30 9.3 W 19 22 10 12 1011.8 1011.7 0.0
20/11:00am 23.5 18.9 5.4 31 9.1 W 19 22 10 12 1011.9 1011.8 0.0
20/10:30am 23.0 18.4 5.4 32 8.8 W 19 22 10 12 1011.8 1011.7 0.0
20/10:00am 21.9 17.0 4.0 31 8.7 W 19 22 10 12 1011.9 1011.8 0.0
20/09:30am 21.5 18.9 6.2 37 7.7 WSW 9 11 5 6 1011.7 1011.6 0.0
20/09:00am 20.6 18.2 6.9 41 7.0 WSW 9 11 5 6 1011.7 1011.6 0.8
20/08:30am 19.3 17.4 7.7 47 5.9 WSW 7 11 4 6 1011.5 1011.4 0.8
20/08:00am 17.1 15.8 9.3 60 4.1 WSW 6 9 3 5 1011.3 1011.2 0.8
20/07:30am 15.4 13.9 8.4 63 3.5 SW 6 9 3 5 1011.0 1010.9 0.8
20/07:00am 14.0 12.5 8.6 70 2.7 SW 6 9 3 5 1010.6 1010.5 0.8
20/06:30am 14.5 - 8.2 66 3.2 - - - - - 1010.3 1010.2 0.8
20/06:00am 14.7 - 9.5 71 2.7 - - - - - 1009.9 1009.8 0.8
20/05:30am 15.8 - 10.1 69 3.0 - - - - - 1009.3 1009.2 0.8
20/05:00am 16.1 - 11.1 72 2.7 - - - - - 1008.9 1008.8 0.8
20/04:30am 16.3 - 11.0 71 2.8 - - - - - 1008.5 1008.4 0.8
20/04:00am 17.7 - 14.0 79 2.1 - - - - - 1008.0 1008.0 0.8
20/03:30am 18.7 - 16.1 85 1.5 - - - - - 1007.5 1007.5 0.8
20/03:00am 19.0 - 16.6 86 1.4 - - - - - 1007.2 1007.2 0.8
20/02:30am 19.5 - 17.6 89 1.2 - - - - - 1006.8 1006.8 0.8
20/02:00am 19.7 - 18.2 91 0.9 - - - - - 1006.4 1006.4 0.8
20/01:30am 20.0 - 18.5 91 0.9 - - - - - 1006.3 1006.3 0.8
20/01:00am 20.2 - 18.5 90 1.1 - - - - - 1006.0 1006.0 0.8
20/12:30am 20.0 - 18.7 92 0.8 - - - - - 1006.0 1006.0 0.8
20/12:00am 19.7 - 18.5 93 0.7 - - - - - 1006.3 1006.3 0.8
 
Date/Time
EDT
Temp
°C
App
Temp
°C
Dew
Point
°C
Rel
Hum
%
Delta-T
°C
Wind Press
QNH
hPa
Press
MSL
hPa
Rain since
9am
mm
Dir  Spd
km/h
Gust
km/h
Spd
kts
Gust
kts
19/11:30pm 19.7 - 18.5 93 0.7 - - - - - 1006.1 1006.1 0.8
19/11:00pm 19.6 - 18.4 93 0.7 - - - - - 1005.6 1005.6 0.8
19/10:30pm 19.5 - 18.3 93 0.7 - - - - - 1005.4 1005.4 0.8
19/10:00pm 19.7 - 18.4 92 0.8 - - - - - 1005.6 1005.6 0.8
19/09:30pm 19.9 - 18.2 90 1.1 - - - - - 1005.1 1005.1 0.8
19/09:00pm 20.2 - 18.3 89 1.2 - - - - - 1004.8 1004.8 0.8
19/08:30pm 20.4 - 18.3 88 1.3 - - - - - 1004.9 1004.9 0.8
19/08:00pm 20.4 - 18.3 88 1.3 - - - - - 1005.6 1005.6 0.8
19/07:56pm 20.4 - 18.3 88 1.3 - - - - - 1005.7 1005.7 0.8
19/07:30pm 20.4 - 18.2 87 1.4 - - - - - 1005.7 1005.7 0.8
19/07:00pm 20.5 - 18.3 87 1.4 - - - - - 1005.3 1005.3 0.8
19/06:30pm 20.8 - 18.4 86 1.5 - - - - - 1005.2 1005.2 0.8
19/06:04pm 20.7 - 17.9 84 1.7 - - - - - 1005.2 1005.2 0.8
19/06:00pm 20.7 - 18.1 85 1.6 - - - - - 1005.3 1005.3 0.8
19/05:30pm 21.3 - 17.1 77 2.6 - - - - - 1005.5 1005.5 0.6
19/05:00pm 21.0 - 17.2 79 2.3 - - - - - 1005.3 1005.3 0.6
19/04:30pm 20.7 - 17.5 82 2.0 - - - - - 1005.8 1005.8 0.6
19/04:00pm 21.1 - 18.3 84 1.7 - - - - - 1006.1 1006.1 0.6
19/03:30pm 20.8 - 18.2 85 1.6 - - - - - 1005.6 1005.6 0.6
19/03:00pm 20.6 - 17.6 83 1.8 - - - - - 1006.7 1006.7 0.6
19/02:30pm 20.9 - 17.1 79 2.3 - - - - - 1006.4 1006.4 0.2
19/02:00pm 21.9 - 17.3 75 2.8 - - - - - 1007.1 1007.1 0.0
19/01:30pm 22.3 - 17.4 74 3.0 - - - - - 1007.1 1007.1 0.0
19/01:00pm 22.0 - 17.2 74 3.0 - - - - - 1007.5 1007.5 0.0
19/12:30pm 21.8 - 16.7 73 3.1 - - - - - 1007.6 1007.6 0.0
19/12:00pm 21.6 - 17.2 76 2.7 - - - - - 1008.0 1008.0 0.0
19/11:30am 21.0 - 17.2 79 2.3 - - - - - 1008.5 1008.4 0.0
19/11:00am 20.8 - 17.2 80 2.2 - - - - - 1008.5 1008.4 0.0
19/10:30am 20.9 - 17.7 82 2.0 - - - - - 1008.2 1008.2 0.0

Latest Capital City Observations: Canberra | Sydney | Melbourne | Brisbane | Adelaide | Perth | Hobart | Darwin

Other Formats:

Comma delimited format used in spreadsheet applications
http://www.bom.gov.au/fwo/IDN60901/IDN60901.94776.axf

JavaScript Object Notation format (JSON) in row-major order
http://www.bom.gov.au/fwo/IDN60901/IDN60901.94776.json